Terminal Aerodrome Forecast
Issued by NWS

Home | Current Version | Previous Version | Text Only | Print | Product List | Glossary On
Versions: 1 2 3 4 5 6 7 8 9 10 11 12 13 14 15
000
FTUS42 TJSJ 011140
TAFJSJ
TAF
TJSJ 011140Z 0112/0212 12007KT P6SM VCSH FEW025 SCT040
     FM011300 07013G20KT P6SM VCSH SCT025 SCT070
     FM012100 09010KT P6SM VCSH FEW025 SCT035=

USA.gov is the U.S. government's official web portal to all federal, state and local government web resources and services.